Wheaton Aston, United Kingdom
Current Conditions -  °F | °C
As of 2:50 AM on Sunday 25 Jan 2015 (Local Time) from EGOS Reporting Station
Overcast Overcast  
Wind Chill: 34°   Ceiling: 16000
Heat Index: 34°   Visibility: 6mi
Dew Point: 32°   Wind: 3mph
Humidity: 93%   Direction: 230°SW
Pressure: 30.42"   Gusts: NA
Location:  52.71°N, 2.22°W
Report Text: EGOS 250250Z AUTO 23003KT 9999 OVC160/// 01/00 Q1030
Loading
Personal Weather Stations






























Interactive Weather Map New forecast layout! Learn more

10-Day Weather Forecast

Advertisements
Track Severe Weather on mobile